Auto, West Virginia
Current Conditions -  °F | °C
As of 9:15 PM on Thursday 20 Nov 2014 (Local Time) from KLWB Reporting Station
Clear Clear  
Wind Chill: 32°   Ceiling: Unl
Heat Index: 32°   Visibility: 10mi
Dew Point: 17°   Wind: 3mph
Humidity: 54%   Direction: 300°WNW
Pressure: 30.08"   Gusts: NA
Location:  37.96°N, 80.33°W
Report Text: KLWB 210215Z AUTO 30003KT 10SM CLR 00/M08 A3008 RMK AO2 T10021085
Loading
Personal Weather Stations






























Interactive Weather Map New forecast layout! Learn more

10-Day Weather Forecast

Advertisements
Track Severe Weather on mobile